Aérodrome :
LOGIN :

S'inscrire | Disclaimer

   EN    FR    IT 

 










Légende :    VFR   VFR Marginal   IFR   IFR Intensif   IFR Très Intensif
Visi : 
Plafond : 
>= 8 km
>= 3000ft
5 à 8 km
1000 à 3000 ft
1500m à 5 km
500 à 1000 ft
800 à 1500m
200 à 500 ft
< 800m
< 200 ft
Symboles :   Orages  Brouillard  Fortes neiges  Fortes précipitations  Vent > 20 kt
SIGMETs :   Divers  Orages  Givrage  Turbulence  Onde Orograph.  Cendres Volcan.







- Altitude de l'aérodrome : 3 ft
- Code IATA : LWR


EHLW - Leuuwarden Air Base

DERNIER METAR :
  • 200255Z AUTO 15008KT 9999 OVC120 18/13 Q1009 BLU

METARs EXPIRÉS :
  • 200225Z AUTO 14009KT 9999 OVC140 18/13 Q1009 BLU
  • 200155Z AUTO 14008KT 110V170 9999 OVC050 18/14 Q1010 BLU
  • 200125Z AUTO 13007KT 9999 FEW055 OVC120 18/14 Q1010 BLU
  • 200055Z AUTO 11005KT 080V140 9999 BKN120 BKN170 OVC240 18/14 Q1010 BLU
  • 200025Z AUTO 12005KT 080V140 9999 BKN051 OVC057 18/15 Q1011 BLU

TAF TAF EHLW
Valide du 20 à 01h jusqu'au 20 à 13h UTC


200045Z 2001/2013 15006KT CAVOK
BECMG 2007/2010 19010KT
TEMPO 2010/2013 22020G35KT 3000 SHRA TSRA SCT030CB BKN040
PROB40
TEMPO 2010/2013 22025G45KT 1500 TSRA TSRAGR SCT012 SCT030CB BKN040
Pas de NOTAMs connus pour ce terrain.



MET'MAP, la Météo Aéronautique d'un coup d'oeil ! - Copyright ORBIFLY Décembre 2007 - Disclaimer

ORBIFLY MET'MAP TEAM :

Programmation & Développement : Alexandra Zaïnal
Conception & Développement : Baudouin d'Aumeries
Co-Programmation & Développement : Marc-Olivier Méhu
Soutien technique & logistique : Manuel Goepfert

Contact : metmap@orbifly.com




SOURCES & CREDITS :

   NOAA